createdAt,value
2023-01-31T00:01:28.000Z,14.80
2023-01-31T00:03:57.142Z,16.70
2023-01-31T00:06:27.638Z,13.53
2023-01-31T00:08:57.377Z,17.77
2023-01-31T00:11:27.075Z,15.57
2023-01-31T00:13:56.905Z,14.87
2023-01-31T00:16:25.001Z,13.50
2023-01-31T00:18:53.186Z,12.87
2023-01-31T00:21:23.121Z,14.67
2023-01-31T00:23:52.587Z,16.60
2023-01-31T00:26:23.386Z,14.63
2023-01-31T00:28:53.341Z,16.13
2023-01-31T00:31:24.886Z,14.33
2023-01-31T00:33:54.830Z,16.67
2023-01-31T00:36:24.707Z,12.37
2023-01-31T00:38:54.109Z,17.47
2023-01-31T00:41:23.722Z,19.77
2023-01-31T00:43:52.493Z,17.20
2023-01-31T00:46:22.288Z,15.20
2023-01-31T00:48:50.645Z,16.53
2023-01-31T00:51:19.693Z,22.37
2023-01-31T00:53:47.889Z,20.73
2023-01-31T00:56:20.614Z,17.87
2023-01-31T00:58:48.616Z,16.87
2023-01-31T01:01:21.269Z,17.03
2023-01-31T01:03:50.889Z,21.00
2023-01-31T01:06:19.333Z,20.67
2023-01-31T01:08:48.150Z,20.37
2023-01-31T01:11:18.316Z,20.00
2023-01-31T01:13:47.416Z,17.50
2023-01-31T01:16:17.552Z,17.37
2023-01-31T01:18:47.087Z,16.53
2023-01-31T01:21:18.564Z,15.47
2023-01-31T01:23:47.693Z,17.87
2023-01-31T01:26:17.171Z,16.20
2023-01-31T01:28:45.209Z,20.17
2023-01-31T01:31:16.310Z,14.80
2023-01-31T01:33:45.042Z,20.67
2023-01-31T01:36:17.306Z,16.60
2023-01-31T01:38:47.129Z,19.97
2023-01-31T01:41:15.784Z,18.83
2023-01-31T01:43:45.814Z,18.57
2023-01-31T01:46:17.301Z,18.13
2023-01-31T01:48:48.165Z,16.20
2023-01-31T01:51:19.455Z,17.53
2023-01-31T01:53:51.945Z,18.13
2023-01-31T01:56:24.772Z,21.30
2023-01-31T01:58:58.568Z,19.53
2023-01-31T02:01:30.016Z,18.90
2023-01-31T02:03:58.095Z,20.57
2023-01-31T02:06:26.860Z,17.13
2023-01-31T02:08:56.566Z,17.90
2023-01-31T02:11:28.484Z,16.17
2023-01-31T02:14:02.053Z,21.30
2023-01-31T02:16:30.426Z,16.60
2023-01-31T02:18:58.945Z,16.53
2023-01-31T02:22:06.893Z,16.13
2023-01-31T02:25:04.451Z,14.97
2023-01-31T02:28:13.335Z,16.63
2023-01-31T02:31:32.022Z,16.90
2023-01-31T02:34:07.551Z,20.03
2023-01-31T02:36:50.471Z,22.20
2023-01-31T02:39:29.193Z,17.83
2023-01-31T02:42:06.885Z,14.60
2023-01-31T02:45:07.079Z,19.47
2023-01-31T02:47:47.854Z,16.00
2023-01-31T02:50:25.951Z,13.93
2023-01-31T02:53:00.042Z,15.30
2023-01-31T02:55:50.793Z,11.93
2023-01-31T02:58:21.207Z,15.17
2023-01-31T03:00:50.667Z,12.70
2023-01-31T03:03:23.069Z,16.00
2023-01-31T03:06:35.764Z,19.60
2023-01-31T03:09:09.181Z,23.00
2023-01-31T03:11:44.668Z,18.43
2023-01-31T03:14:23.582Z,16.10
2023-01-31T03:17:15.839Z,15.30
2023-01-31T03:19:51.435Z,17.37
2023-01-31T03:22:26.429Z,19.83
2023-01-31T03:24:55.917Z,18.80
2023-01-31T03:27:24.801Z,23.37
2023-01-31T03:29:58.488Z,16.67
2023-01-31T03:32:32.630Z,20.70
2023-01-31T03:35:00.945Z,16.50
2023-01-31T03:37:38.360Z,16.23
2023-01-31T03:40:11.958Z,13.57
2023-01-31T03:42:47.091Z,10.30
2023-01-31T03:45:21.428Z,18.20
2023-01-31T03:47:51.456Z,10.63
2023-01-31T03:50:24.128Z,8.77
2023-01-31T03:52:58.255Z,11.47
2023-01-31T03:55:32.718Z,11.77
2023-01-31T03:58:03.294Z,16.53
2023-01-31T04:00:34.796Z,11.63
2023-01-31T04:03:08.680Z,14.17
2023-01-31T04:05:37.079Z,13.90
2023-01-31T04:08:06.661Z,11.70
2023-01-31T04:10:34.807Z,15.00
2023-01-31T04:13:02.800Z,10.70
2023-01-31T04:15:31.051Z,16.57
2023-01-31T04:17:59.039Z,10.63
2023-01-31T04:20:27.096Z,13.37
2023-01-31T04:22:55.099Z,19.80
2023-01-31T04:25:24.392Z,17.57
2023-01-31T04:27:52.395Z,15.47
2023-01-31T04:30:20.339Z,20.53
2023-01-31T04:32:48.799Z,16.37
2023-01-31T04:35:16.888Z,19.03
2023-01-31T04:37:44.836Z,16.00
2023-01-31T04:40:14.408Z,20.30
2023-01-31T04:42:43.794Z,16.23
2023-01-31T04:45:12.547Z,13.30
2023-01-31T04:47:40.468Z,15.40
2023-01-31T04:50:09.828Z,17.03
2023-01-31T04:52:37.819Z,20.87
2023-01-31T04:55:06.857Z,18.33
2023-01-31T04:57:34.825Z,18.40
2023-01-31T05:00:04.257Z,18.27
2023-01-31T05:02:32.446Z,19.20
2023-01-31T05:05:00.576Z,20.20
2023-01-31T05:07:28.594Z,17.77
2023-01-31T05:09:56.537Z,20.30
2023-01-31T05:12:24.488Z,21.83
2023-01-31T05:14:52.427Z,20.50
2023-01-31T05:17:26.769Z,25.63
2023-01-31T05:19:54.712Z,22.50
2023-01-31T05:22:23.071Z,19.93
2023-01-31T05:24:51.506Z,24.97
2023-01-31T05:27:20.709Z,28.37
2023-01-31T05:29:48.774Z,20.37
2023-01-31T05:32:17.804Z,24.07
2023-01-31T05:34:47.141Z,19.27
2023-01-31T05:37:15.087Z,19.70
2023-01-31T05:39:43.030Z,13.13
2023-01-31T05:42:10.971Z,20.93
2023-01-31T05:44:38.940Z,18.50
2023-01-31T05:47:06.988Z,16.27
2023-01-31T05:49:34.864Z,19.20
2023-01-31T05:52:04.208Z,21.33
2023-01-31T05:54:32.628Z,13.13
2023-01-31T05:57:00.629Z,19.10
2023-01-31T05:59:31.089Z,16.93
2023-01-31T06:01:59.741Z,17.13
2023-01-31T06:04:27.754Z,20.03
2023-01-31T06:06:55.700Z,15.57
2023-01-31T06:09:25.021Z,17.57
2023-01-31T06:11:53.047Z,15.97
2023-01-31T06:14:20.990Z,19.77
2023-01-31T06:16:49.185Z,19.87
2023-01-31T06:19:17.221Z,19.07
2023-01-31T06:21:45.229Z,19.77
2023-01-31T06:24:13.188Z,18.60
2023-01-31T06:26:42.531Z,21.80
2023-01-31T06:29:11.030Z,17.87
2023-01-31T06:31:39.069Z,20.37
2023-01-31T06:34:07.078Z,21.37
2023-01-31T06:36:35.187Z,21.30
2023-01-31T06:39:04.116Z,15.77
2023-01-31T06:41:32.117Z,20.17
2023-01-31T06:44:01.828Z,15.90
2023-01-31T06:46:30.339Z,25.80
2023-01-31T06:48:58.471Z,20.60
2023-01-31T06:51:26.496Z,27.43
2023-01-31T06:53:56.728Z,16.73
2023-01-31T06:56:25.068Z,17.07
2023-01-31T06:58:53.694Z,27.13
2023-01-31T07:01:24.395Z,22.40
2023-01-31T07:03:55.048Z,18.77
2023-01-31T07:06:23.689Z,22.67
2023-01-31T07:08:52.737Z,30.87
2023-01-31T07:11:20.827Z,23.50
2023-01-31T07:13:53.769Z,27.63
2023-01-31T07:16:28.135Z,22.93
2023-01-31T07:18:59.343Z,25.03
2023-01-31T07:21:30.272Z,25.00
2023-01-31T07:24:02.419Z,24.23
2023-01-31T07:26:31.157Z,23.60
2023-01-31T07:28:59.170Z,17.70
2023-01-31T07:31:29.016Z,22.00
2023-01-31T07:33:57.088Z,20.93
2023-01-31T07:36:26.663Z,25.73
2023-01-31T07:38:56.505Z,23.50
2023-01-31T07:41:25.772Z,24.47
2023-01-31T07:43:54.348Z,22.93
2023-01-31T07:46:22.504Z,22.13
2023-01-31T07:48:52.511Z,29.70
2023-01-31T07:51:20.449Z,27.13
2023-01-31T07:53:49.091Z,36.07
2023-01-31T07:56:19.181Z,28.13
2023-01-31T07:58:48.591Z,33.40
2023-01-31T08:01:36.472Z,29.93
2023-01-31T08:04:20.060Z,23.23
2023-01-31T08:06:53.301Z,24.43
2023-01-31T08:09:21.486Z,29.37
2023-01-31T08:11:52.076Z,26.03
2023-01-31T08:14:25.518Z,27.93
2023-01-31T08:16:53.878Z,29.03
2023-01-31T08:19:23.439Z,20.93
2023-01-31T08:21:51.502Z,21.63
2023-01-31T08:24:19.736Z,23.57
2023-01-31T08:26:47.889Z,30.40
2023-01-31T08:29:16.430Z,22.80
2023-01-31T08:31:44.740Z,22.73
2023-01-31T08:34:13.454Z,27.77
2023-01-31T08:36:43.677Z,25.17
2023-01-31T08:39:12.109Z,23.07
2023-01-31T08:41:40.739Z,28.40
2023-01-31T08:44:09.034Z,27.43
2023-01-31T08:46:39.403Z,33.30
2023-01-31T08:49:08.713Z,23.23
2023-01-31T08:51:36.888Z,29.63
2023-01-31T08:54:06.430Z,26.43
2023-01-31T08:56:34.480Z,23.80
2023-01-31T08:59:02.558Z,21.50
2023-01-31T09:01:30.613Z,24.10
2023-01-31T09:03:58.607Z,27.80
2023-01-31T09:06:29.021Z,39.27
2023-01-31T09:08:58.638Z,33.23
2023-01-31T09:11:30.864Z,28.10
2023-01-31T09:13:59.394Z,24.20
2023-01-31T09:16:27.481Z,25.63
2023-01-31T09:18:56.424Z,25.03
2023-01-31T09:21:25.393Z,24.80
2023-01-31T09:23:57.339Z,32.20
2023-01-31T09:26:25.720Z,27.13
2023-01-31T09:28:56.255Z,28.87
2023-01-31T09:31:24.495Z,27.70
2023-01-31T09:33:52.852Z,32.07
2023-01-31T09:36:22.210Z,24.43
2023-01-31T09:38:54.350Z,19.17
2023-01-31T09:41:28.482Z,23.30
2023-01-31T09:44:01.083Z,20.50
2023-01-31T09:46:36.410Z,22.73
2023-01-31T09:49:08.258Z,23.93
2023-01-31T09:51:36.817Z,24.37
2023-01-31T09:54:16.239Z,27.10
2023-01-31T09:56:51.541Z,27.63
2023-01-31T09:59:24.815Z,33.43
2023-01-31T10:02:01.136Z,23.93
2023-01-31T10:04:47.848Z,34.90
2023-01-31T10:07:21.419Z,25.67
2023-01-31T10:09:56.811Z,16.30
2023-01-31T10:12:30.493Z,15.60
2023-01-31T10:15:04.010Z,20.17
2023-01-31T10:17:36.490Z,21.70
2023-01-31T10:20:09.755Z,18.23
2023-01-31T10:22:41.273Z,21.90
2023-01-31T10:25:22.724Z,22.33
2023-01-31T10:27:55.815Z,24.60
2023-01-31T10:30:31.688Z,25.87
2023-01-31T10:33:05.265Z,21.23
2023-01-31T10:35:38.429Z,29.03
2023-01-31T10:38:14.374Z,26.57
2023-01-31T10:40:46.585Z,22.00
2023-01-31T10:43:20.219Z,29.83
2023-01-31T10:45:49.944Z,29.30
2023-01-31T10:48:22.234Z,27.17
2023-01-31T10:50:59.592Z,21.27
2023-01-31T10:53:45.075Z,29.43
2023-01-31T10:56:20.705Z,26.30
2023-01-31T10:58:50.034Z,26.73
2023-01-31T11:01:19.824Z,27.53
2023-01-31T11:03:52.944Z,25.60
2023-01-31T11:06:22.886Z,23.03
2023-01-31T11:08:53.972Z,25.33
2023-01-31T11:11:24.714Z,23.57
2023-01-31T11:14:00.811Z,17.63
2023-01-31T11:16:33.797Z,22.80
2023-01-31T11:19:05.455Z,27.40
2023-01-31T11:21:38.143Z,20.87
2023-01-31T11:24:09.091Z,18.97
2023-01-31T11:26:39.610Z,20.87
2023-01-31T11:29:18.195Z,20.37
2023-01-31T11:31:48.382Z,19.37
2023-01-31T11:34:23.370Z,19.47
2023-01-31T11:36:51.998Z,22.67
2023-01-31T11:39:28.050Z,27.47
2023-01-31T11:41:58.786Z,25.57
2023-01-31T11:44:26.850Z,19.77
2023-01-31T11:47:02.411Z,24.13
2023-01-31T11:49:34.617Z,26.13
2023-01-31T11:52:13.177Z,29.17
2023-01-31T11:54:45.111Z,27.97
2023-01-31T11:57:18.195Z,20.07
2023-01-31T11:59:50.347Z,22.77
2023-01-31T12:02:32.848Z,22.70
2023-01-31T12:05:02.947Z,21.77
2023-01-31T12:07:42.580Z,26.70
2023-01-31T12:10:27.509Z,26.57
2023-01-31T12:13:12.635Z,32.93
2023-01-31T12:15:52.419Z,27.90
2023-01-31T12:18:42.584Z,32.57
2023-01-31T12:21:16.283Z,29.53
2023-01-31T12:23:59.357Z,38.73
2023-01-31T12:26:35.918Z,34.23
2023-01-31T12:29:25.495Z,31.03
2023-01-31T12:32:08.880Z,49.87
2023-01-31T12:35:05.168Z,30.53
2023-01-31T12:37:43.506Z,29.97
2023-01-31T12:40:36.650Z,21.57
2023-01-31T12:43:10.651Z,22.73
2023-01-31T12:45:55.062Z,22.37
2023-01-31T12:49:00.880Z,25.67
2023-01-31T12:51:43.770Z,31.63
2023-01-31T12:54:28.402Z,20.73
2023-01-31T12:57:24.035Z,26.67
2023-01-31T12:59:57.927Z,31.83
2023-01-31T13:02:38.481Z,22.43
2023-01-31T13:05:15.810Z,27.33
2023-01-31T13:07:49.777Z,24.53
2023-01-31T13:10:34.286Z,27.50
2023-01-31T13:13:03.797Z,25.37
2023-01-31T13:15:40.052Z,25.83
2023-01-31T13:18:11.791Z,29.40
2023-01-31T13:20:42.747Z,26.57
2023-01-31T13:23:18.293Z,27.83
2023-01-31T13:25:52.678Z,27.77
2023-01-31T13:28:26.229Z,26.27
2023-01-31T13:30:58.604Z,22.53
2023-01-31T13:33:33.240Z,17.67
2023-01-31T13:36:09.885Z,20.87
2023-01-31T13:38:43.180Z,21.70
2023-01-31T13:41:19.247Z,22.17
2023-01-31T13:43:47.255Z,26.87
2023-01-31T13:46:18.188Z,36.77
2023-01-31T13:48:53.055Z,28.90
2023-01-31T13:51:26.126Z,31.17
2023-01-31T13:54:00.505Z,24.63
2023-01-31T13:56:31.608Z,28.23
2023-01-31T13:59:01.003Z,23.37
2023-01-31T14:01:32.192Z,23.33
2023-01-31T14:04:24.263Z,20.47
2023-01-31T14:07:25.640Z,22.13
2023-01-31T14:10:28.124Z,23.20
2023-01-31T14:13:24.852Z,25.80
2023-01-31T14:15:54.416Z,28.87
2023-01-31T14:18:43.651Z,24.70
2023-01-31T14:21:54.675Z,32.60
2023-01-31T14:25:07.187Z,27.57
2023-01-31T14:27:43.392Z,26.00
2023-01-31T14:30:29.894Z,25.60
2023-01-31T14:33:07.465Z,29.00
2023-01-31T14:36:00.434Z,35.07
2023-01-31T14:38:43.056Z,27.27
2023-01-31T14:41:18.814Z,25.93
2023-01-31T14:44:00.254Z,29.97
2023-01-31T14:46:54.589Z,33.30
2023-01-31T14:49:52.483Z,29.70
2023-01-31T14:52:45.216Z,34.93
2023-01-31T14:55:38.164Z,28.57
2023-01-31T14:58:07.916Z,29.43
2023-01-31T15:00:39.954Z,34.17
2023-01-31T15:03:13.877Z,31.67
2023-01-31T15:05:48.568Z,33.33
2023-01-31T15:08:39.556Z,31.60
2023-01-31T15:11:12.961Z,29.07
2023-01-31T15:13:47.492Z,35.23
2023-01-31T15:16:28.282Z,40.10
2023-01-31T15:19:02.919Z,38.23
2023-01-31T15:21:34.326Z,34.03
2023-01-31T15:24:03.305Z,39.30
2023-01-31T15:26:35.557Z,39.73
2023-01-31T15:29:05.625Z,40.37
2023-01-31T15:31:42.087Z,34.60
2023-01-31T15:34:17.127Z,31.87
2023-01-31T15:36:48.227Z,29.20
2023-01-31T15:39:24.099Z,35.93
2023-01-31T15:41:52.040Z,36.90
2023-01-31T15:44:22.293Z,33.43
2023-01-31T15:46:53.216Z,37.40
2023-01-31T15:49:38.682Z,32.47
2023-01-31T15:52:14.052Z,33.70
2023-01-31T15:54:52.888Z,30.63
2023-01-31T15:57:21.757Z,27.13
2023-01-31T15:59:51.285Z,25.90
2023-01-31T16:02:26.440Z,24.63
2023-01-31T16:04:54.551Z,22.70
2023-01-31T16:07:28.404Z,28.10
2023-01-31T16:09:58.198Z,27.23
2023-01-31T16:12:27.893Z,30.63
2023-01-31T16:14:59.383Z,26.83
2023-01-31T16:17:29.645Z,30.97
2023-01-31T16:19:58.298Z,42.27
2023-01-31T16:22:28.784Z,37.47
2023-01-31T16:24:58.837Z,37.43
2023-01-31T16:27:29.597Z,45.70
2023-01-31T16:29:59.497Z,34.23
2023-01-31T16:32:31.253Z,34.10
2023-01-31T16:35:01.445Z,36.03
2023-01-31T16:37:35.052Z,36.07
2023-01-31T16:40:07.076Z,40.03
2023-01-31T16:42:38.788Z,31.67
2023-01-31T16:45:30.095Z,40.97
2023-01-31T16:48:20.416Z,36.70
2023-01-31T16:50:48.414Z,33.30
2023-01-31T16:53:31.290Z,42.60
2023-01-31T16:56:20.782Z,34.70
2023-01-31T16:58:54.859Z,38.60
2023-01-31T17:01:27.227Z,36.77
2023-01-31T17:04:06.626Z,37.03
2023-01-31T17:06:35.124Z,43.10
2023-01-31T17:09:05.439Z,42.33
2023-01-31T17:11:42.569Z,50.87
2023-01-31T17:14:10.916Z,45.80
2023-01-31T17:16:39.225Z,36.23
2023-01-31T17:19:08.589Z,32.00
2023-01-31T17:21:41.844Z,36.70
2023-01-31T17:24:14.310Z,30.70
2023-01-31T17:26:42.688Z,38.57
2023-01-31T17:29:10.683Z,35.13
2023-01-31T17:31:39.416Z,36.37
2023-01-31T17:34:13.911Z,39.63
2023-01-31T17:36:42.001Z,40.43
2023-01-31T17:39:10.087Z,41.47
2023-01-31T17:41:41.130Z,44.03
2023-01-31T17:44:13.806Z,39.87
2023-01-31T17:46:42.004Z,47.93
2023-01-31T17:49:11.359Z,40.73
2023-01-31T17:51:39.549Z,40.80
2023-01-31T17:54:07.617Z,40.07
2023-01-31T17:56:36.175Z,37.13
2023-01-31T17:59:04.901Z,34.07
2023-01-31T18:01:33.207Z,37.20
2023-01-31T18:04:01.253Z,33.63
2023-01-31T18:06:30.538Z,46.13
2023-01-31T18:09:02.478Z,36.80
2023-01-31T18:11:30.433Z,31.70
2023-01-31T18:14:00.056Z,32.57
2023-01-31T18:16:28.127Z,32.60
2023-01-31T18:18:56.257Z,33.63
2023-01-31T18:21:25.016Z,35.80
2023-01-31T18:23:56.106Z,35.33
2023-01-31T18:26:25.759Z,35.20
2023-01-31T18:28:56.134Z,34.47
2023-01-31T18:31:24.318Z,31.43
2023-01-31T18:33:52.352Z,31.03
2023-01-31T18:36:21.877Z,30.87
2023-01-31T18:38:50.945Z,30.80
2023-01-31T18:41:21.801Z,32.60
2023-01-31T18:43:50.256Z,32.60
2023-01-31T18:46:18.533Z,34.73
2023-01-31T18:48:46.824Z,29.23
2023-01-31T18:51:15.646Z,31.50
2023-01-31T18:53:45.806Z,33.43
2023-01-31T18:56:16.541Z,35.57
2023-01-31T18:58:49.317Z,27.97
2023-01-31T19:01:18.777Z,27.87
2023-01-31T19:03:49.987Z,34.07
2023-01-31T19:06:21.096Z,29.63
2023-01-31T19:08:50.201Z,32.70
2023-01-31T19:11:19.644Z,29.90
2023-01-31T19:13:49.763Z,30.67
2023-01-31T19:16:20.493Z,29.33
2023-01-31T19:18:48.738Z,28.33
2023-01-31T19:21:17.650Z,34.40
2023-01-31T19:23:46.448Z,29.67
2023-01-31T19:26:15.923Z,31.87
2023-01-31T19:28:44.634Z,33.37
2023-01-31T19:31:15.809Z,30.23
2023-01-31T19:33:48.332Z,30.07
2023-01-31T19:36:19.895Z,28.53
2023-01-31T19:38:48.198Z,30.37
2023-01-31T19:41:18.913Z,28.93
2023-01-31T19:43:47.540Z,27.67
2023-01-31T19:46:16.892Z,28.77
2023-01-31T19:48:44.940Z,27.13
2023-01-31T19:51:14.969Z,27.30
2023-01-31T19:53:43.616Z,21.63
2023-01-31T19:56:11.725Z,28.37
2023-01-31T19:58:39.716Z,26.10
2023-01-31T20:01:09.320Z,29.80
2023-01-31T20:03:38.660Z,26.20
2023-01-31T20:06:08.843Z,24.80
2023-01-31T20:08:37.159Z,27.53
2023-01-31T20:11:07.720Z,27.40
2023-01-31T20:13:36.229Z,25.57
2023-01-31T20:16:05.954Z,23.70
2023-01-31T20:18:34.224Z,26.10
2023-01-31T20:21:03.588Z,23.13
2023-01-31T20:23:31.737Z,25.90
2023-01-31T20:25:59.985Z,22.37
2023-01-31T20:28:28.483Z,22.77
2023-01-31T20:30:56.534Z,24.80
2023-01-31T20:33:24.535Z,22.70
2023-01-31T20:35:52.475Z,26.60
2023-01-31T20:38:21.778Z,29.27
2023-01-31T20:40:51.508Z,30.20
2023-01-31T20:43:19.752Z,29.57
2023-01-31T20:45:48.133Z,32.40
2023-01-31T20:48:16.341Z,24.67
2023-01-31T20:50:44.883Z,26.87
2023-01-31T20:53:19.083Z,21.97
2023-01-31T20:55:55.353Z,24.03
2023-01-31T20:58:23.388Z,21.60
2023-01-31T21:00:53.402Z,21.90
2023-01-31T21:03:21.777Z,24.43
2023-01-31T21:05:50.299Z,22.33
2023-01-31T21:08:18.687Z,20.93
2023-01-31T21:10:51.899Z,22.97
2023-01-31T21:13:20.569Z,22.73
2023-01-31T21:15:51.613Z,22.30
2023-01-31T21:18:19.666Z,22.37
2023-01-31T21:20:48.139Z,28.63
2023-01-31T21:23:16.144Z,20.80
2023-01-31T21:25:44.202Z,19.60
2023-01-31T21:28:13.530Z,25.60
2023-01-31T21:30:41.831Z,23.97
2023-01-31T21:33:09.964Z,21.40
2023-01-31T21:35:37.909Z,23.03
2023-01-31T21:38:05.896Z,20.63
2023-01-31T21:40:33.829Z,22.73
2023-01-31T21:43:00.785Z,24.60
2023-01-31T21:45:41.934Z,19.43
2023-01-31T21:48:30.497Z,21.17
2023-01-31T21:51:03.769Z,23.10
2023-01-31T21:53:31.764Z,24.93
2023-01-31T21:56:03.450Z,23.00
2023-01-31T21:58:31.780Z,20.13
2023-01-31T22:01:05.773Z,22.20
2023-01-31T22:03:34.881Z,23.07
2023-01-31T22:06:03.651Z,22.30
2023-01-31T22:08:31.758Z,20.67
2023-01-31T22:11:01.363Z,19.03
2023-01-31T22:13:29.390Z,21.20
2023-01-31T22:16:00.555Z,19.03
2023-01-31T22:18:30.611Z,19.03
2023-01-31T22:21:06.642Z,21.77
2023-01-31T22:23:35.603Z,20.97
2023-01-31T22:26:04.849Z,25.30
2023-01-31T22:28:32.794Z,23.10
2023-01-31T22:31:02.188Z,21.77
2023-01-31T22:33:32.014Z,20.77
2023-01-31T22:36:00.365Z,17.63
2023-01-31T22:38:29.328Z,17.77
2023-01-31T22:40:59.145Z,21.20
2023-01-31T22:43:27.690Z,18.07
2023-01-31T22:45:57.305Z,19.47
2023-01-31T22:48:26.272Z,21.47
2023-01-31T22:50:57.380Z,21.30
2023-01-31T22:53:25.957Z,21.37
2023-01-31T22:55:54.215Z,21.13
2023-01-31T22:58:22.564Z,19.00
2023-01-31T23:00:50.515Z,21.67
2023-01-31T23:03:18.547Z,20.47
2023-01-31T23:05:46.870Z,18.37
2023-01-31T23:08:17.039Z,22.23
2023-01-31T23:10:46.332Z,22.33
2023-01-31T23:13:14.485Z,21.37
2023-01-31T23:15:42.462Z,21.40
2023-01-31T23:18:09.535Z,19.90
2023-01-31T23:20:37.454Z,20.80
2023-01-31T23:23:05.380Z,21.97
2023-01-31T23:25:34.621Z,22.17
2023-01-31T23:28:03.214Z,28.03
2023-01-31T23:30:31.219Z,24.63
2023-01-31T23:32:59.293Z,22.90
2023-01-31T23:35:27.357Z,24.17
2023-01-31T23:37:55.667Z,23.63
2023-01-31T23:40:23.920Z,18.77
2023-01-31T23:42:53.369Z,25.70
2023-01-31T23:45:21.320Z,16.93
2023-01-31T23:47:50.393Z,19.70
2023-01-31T23:50:19.188Z,17.27
2023-01-31T23:52:47.423Z,14.50
2023-01-31T23:55:15.618Z,13.17
2023-01-31T23:57:43.538Z,16.27
